sensor_id;sensor_type;location;lat;lon;timestamp;P1;durP1;ratioP1;P2;durP2;ratioP2
36371;SDS011;22398;51.346;12.372;2024-03-29T00:04:34;1.08;;;0.40;;
36371;SDS011;22398;51.346;12.372;2024-03-29T00:09:35;3.80;;;1.00;;
36371;SDS011;22398;51.346;12.372;2024-03-29T00:14:37;1.75;;;0.70;;
36371;SDS011;22398;51.346;12.372;2024-03-29T00:19:40;5.60;;;0.75;;
36371;SDS011;22398;51.346;12.372;2024-03-29T00:24:41;1.58;;;0.77;;
36371;SDS011;22398;51.346;12.372;2024-03-29T00:29:43;3.00;;;1.10;;
36371;SDS011;22398;51.346;12.372;2024-03-29T00:34:46;3.40;;;0.98;;
36371;SDS011;22398;51.346;12.372;2024-03-29T00:39:47;2.15;;;0.70;;
36371;SDS011;22398;51.346;12.372;2024-03-29T00:44:49;2.80;;;0.70;;
36371;SDS011;22398;51.346;12.372;2024-03-29T00:49:52;5.72;;;0.75;;
36371;SDS011;22398;51.346;12.372;2024-03-29T00:54:53;3.25;;;0.90;;
36371;SDS011;22398;51.346;12.372;2024-03-29T00:59:54;1.70;;;0.60;;
36371;SDS011;22398;51.346;12.372;2024-03-29T01:04:57;1.70;;;0.68;;
36371;SDS011;22398;51.346;12.372;2024-03-29T01:09:59;4.68;;;0.63;;
36371;SDS011;22398;51.346;12.372;2024-03-29T01:15:00;8.10;;;0.80;;
36371;SDS011;22398;51.346;12.372;2024-03-29T01:20:03;3.90;;;1.05;;
36371;SDS011;22398;51.346;12.372;2024-03-29T01:25:05;2.33;;;0.98;;
36371;SDS011;22398;51.346;12.372;2024-03-29T01:30:07;1.35;;;0.77;;
36371;SDS011;22398;51.346;12.372;2024-03-29T01:35:10;2.05;;;0.77;;
36371;SDS011;22398;51.346;12.372;2024-03-29T01:40:12;0.50;;;0.30;;
36371;SDS011;22398;51.346;12.372;2024-03-29T01:45:13;6.55;;;0.85;;
36371;SDS011;22398;51.346;12.372;2024-03-29T01:50:17;0.82;;;0.40;;
36371;SDS011;22398;51.346;12.372;2024-03-29T01:55:20;2.65;;;0.65;;
36371;SDS011;22398;51.346;12.372;2024-03-29T02:00:23;5.18;;;1.45;;
36371;SDS011;22398;51.346;12.372;2024-03-29T02:05:29;1.90;;;0.60;;
36371;SDS011;22398;51.346;12.372;2024-03-29T02:10:32;3.83;;;0.55;;
36371;SDS011;22398;51.346;12.372;2024-03-29T02:15:35;1.60;;;0.50;;
36371;SDS011;22398;51.346;12.372;2024-03-29T02:20:39;2.45;;;0.85;;
36371;SDS011;22398;51.346;12.372;2024-03-29T02:25:42;1.30;;;1.15;;
36371;SDS011;22398;51.346;12.372;2024-03-29T02:30:45;3.10;;;0.85;;
36371;SDS011;22398;51.346;12.372;2024-03-29T02:35:47;1.27;;;0.40;;
36371;SDS011;22398;51.346;12.372;2024-03-29T02:40:51;8.55;;;1.00;;
36371;SDS011;22398;51.346;12.372;2024-03-29T02:45:53;2.00;;;0.60;;
36371;SDS011;22398;51.346;12.372;2024-03-29T02:50:56;3.88;;;0.60;;
36371;SDS011;22398;51.346;12.372;2024-03-29T02:56:00;2.65;;;0.77;;
36371;SDS011;22398;51.346;12.372;2024-03-29T03:01:06;3.92;;;0.75;;
36371;SDS011;22398;51.346;12.372;2024-03-29T03:06:09;5.13;;;0.63;;
36371;SDS011;22398;51.346;12.372;2024-03-29T03:11:13;2.90;;;0.82;;
36371;SDS011;22398;51.346;12.372;2024-03-29T03:16:16;8.02;;;0.75;;
36371;SDS011;22398;51.346;12.372;2024-03-29T03:21:18;2.70;;;0.80;;
36371;SDS011;22398;51.346;12.372;2024-03-29T03:26:23;1.48;;;0.60;;
36371;SDS011;22398;51.346;12.372;2024-03-29T03:31:25;2.60;;;0.47;;
36371;SDS011;22398;51.346;12.372;2024-03-29T03:36:27;1.25;;;0.55;;
36371;SDS011;22398;51.346;12.372;2024-03-29T03:41:31;4.03;;;0.75;;
36371;SDS011;22398;51.346;12.372;2024-03-29T03:46:34;2.22;;;0.63;;
36371;SDS011;22398;51.346;12.372;2024-03-29T03:51:37;2.97;;;0.80;;
36371;SDS011;22398;51.346;12.372;2024-03-29T03:56:41;3.70;;;0.70;;
36371;SDS011;22398;51.346;12.372;2024-03-29T04:01:43;3.50;;;1.00;;
36371;SDS011;22398;51.346;12.372;2024-03-29T04:06:46;1.63;;;0.60;;
36371;SDS011;22398;51.346;12.372;2024-03-29T04:11:50;3.92;;;0.50;;
36371;SDS011;22398;51.346;12.372;2024-03-29T04:16:52;5.13;;;0.93;;
36371;SDS011;22398;51.346;12.372;2024-03-29T04:21:55;2.80;;;0.65;;
36371;SDS011;22398;51.346;12.372;2024-03-29T04:26:59;4.38;;;1.10;;
36371;SDS011;22398;51.346;12.372;2024-03-29T04:32:01;3.70;;;0.70;;
36371;SDS011;22398;51.346;12.372;2024-03-29T04:37:04;1.90;;;0.88;;
36371;SDS011;22398;51.346;12.372;2024-03-29T04:42:08;8.07;;;0.80;;
36371;SDS011;22398;51.346;12.372;2024-03-29T04:47:10;1.92;;;0.43;;
36371;SDS011;22398;51.346;12.372;2024-03-29T04:52:12;3.53;;;1.23;;
36371;SDS011;22398;51.346;12.372;2024-03-29T04:57:16;1.10;;;0.50;;
36371;SDS011;22398;51.346;12.372;2024-03-29T05:02:19;5.40;;;0.68;;
36371;SDS011;22398;51.346;12.372;2024-03-29T05:07:21;4.10;;;0.95;;
36371;SDS011;22398;51.346;12.372;2024-03-29T05:12:25;3.70;;;0.47;;
36371;SDS011;22398;51.346;12.372;2024-03-29T05:17:29;2.42;;;0.82;;
36371;SDS011;22398;51.346;12.372;2024-03-29T05:22:31;3.63;;;0.85;;
36371;SDS011;22398;51.346;12.372;2024-03-29T05:27:35;4.70;;;0.60;;
36371;SDS011;22398;51.346;12.372;2024-03-29T05:32:38;1.95;;;0.60;;
36371;SDS011;22398;51.346;12.372;2024-03-29T05:37:40;2.15;;;0.70;;
36371;SDS011;22398;51.346;12.372;2024-03-29T05:42:48;6.03;;;0.60;;
36371;SDS011;22398;51.346;12.372;2024-03-29T05:47:51;1.45;;;0.63;;
36371;SDS011;22398;51.346;12.372;2024-03-29T05:52:54;4.40;;;0.80;;
36371;SDS011;22398;51.346;12.372;2024-03-29T05:57:58;2.05;;;0.63;;
36371;SDS011;22398;51.346;12.372;2024-03-29T06:03:01;2.92;;;0.65;;
36371;SDS011;22398;51.346;12.372;2024-03-29T06:08:04;1.65;;;0.70;;
36371;SDS011;22398;51.346;12.372;2024-03-29T06:13:08;3.03;;;0.63;;
36371;SDS011;22398;51.346;12.372;2024-03-29T06:18:28;1.13;;;0.60;;
36371;SDS011;22398;51.346;12.372;2024-03-29T06:23:31;3.38;;;0.90;;
36371;SDS011;22398;51.346;12.372;2024-03-29T06:28:35;0.77;;;0.32;;
36371;SDS011;22398;51.346;12.372;2024-03-29T06:33:37;4.07;;;1.02;;
36371;SDS011;22398;51.346;12.372;2024-03-29T06:38:40;2.90;;;0.70;;
36371;SDS011;22398;51.346;12.372;2024-03-29T06:43:44;2.97;;;0.60;;
36371;SDS011;22398;51.346;12.372;2024-03-29T06:48:46;7.30;;;0.82;;
36371;SDS011;22398;51.346;12.372;2024-03-29T06:53:50;2.95;;;0.68;;
36371;SDS011;22398;51.346;12.372;2024-03-29T06:58:54;4.78;;;0.85;;
36371;SDS011;22398;51.346;12.372;2024-03-29T07:03:56;2.13;;;0.73;;
36371;SDS011;22398;51.346;12.372;2024-03-29T07:08:59;1.17;;;0.40;;
36371;SDS011;22398;51.346;12.372;2024-03-29T07:14:05;2.47;;;0.60;;
36371;SDS011;22398;51.346;12.372;2024-03-29T07:19:08;1.25;;;0.50;;
36371;SDS011;22398;51.346;12.372;2024-03-29T07:24:13;2.70;;;0.80;;
36371;SDS011;22398;51.346;12.372;2024-03-29T07:29:17;0.50;;;0.40;;
36371;SDS011;22398;51.346;12.372;2024-03-29T07:34:20;3.05;;;0.75;;
36371;SDS011;22398;51.346;12.372;2024-03-29T07:39:22;3.05;;;0.80;;
36371;SDS011;22398;51.346;12.372;2024-03-29T07:44:26;3.17;;;0.70;;
36371;SDS011;22398;51.346;12.372;2024-03-29T07:49:28;2.95;;;0.70;;
36371;SDS011;22398;51.346;12.372;2024-03-29T07:54:31;1.38;;;0.50;;
36371;SDS011;22398;51.346;12.372;2024-03-29T07:59:35;2.97;;;0.88;;
36371;SDS011;22398;51.346;12.372;2024-03-29T08:04:39;1.90;;;0.90;;
36371;SDS011;22398;51.346;12.372;2024-03-29T08:09:43;2.03;;;0.70;;
36371;SDS011;22398;51.346;12.372;2024-03-29T08:14:47;0.82;;;0.60;;
36371;SDS011;22398;51.346;12.372;2024-03-29T08:19:50;1.50;;;0.63;;
36371;SDS011;22398;51.346;12.372;2024-03-29T08:24:53;3.45;;;0.68;;
36371;SDS011;22398;51.346;12.372;2024-03-29T08:29:57;1.08;;;0.60;;
36371;SDS011;22398;51.346;12.372;2024-03-29T08:34:59;1.25;;;0.60;;
36371;SDS011;22398;51.346;12.372;2024-03-29T08:40:02;2.67;;;0.88;;
36371;SDS011;22398;51.346;12.372;2024-03-29T08:45:06;1.13;;;0.38;;
36371;SDS011;22398;51.346;12.372;2024-03-29T08:50:11;3.30;;;0.70;;
36371;SDS011;22398;51.346;12.372;2024-03-29T08:55:14;2.90;;;0.75;;
36371;SDS011;22398;51.346;12.372;2024-03-29T09:00:18;2.88;;;0.60;;
36371;SDS011;22398;51.346;12.372;2024-03-29T09:05:21;2.95;;;0.70;;
36371;SDS011;22398;51.346;12.372;2024-03-29T09:10:24;1.70;;;0.70;;
36371;SDS011;22398;51.346;12.372;2024-03-29T09:15:28;2.78;;;0.98;;
36371;SDS011;22398;51.346;12.372;2024-03-29T09:20:31;2.10;;;0.90;;
36371;SDS011;22398;51.346;12.372;2024-03-29T09:25:33;3.92;;;1.20;;
36371;SDS011;22398;51.346;12.372;2024-03-29T09:30:37;2.75;;;0.85;;
36371;SDS011;22398;51.346;12.372;2024-03-29T09:35:41;2.25;;;0.80;;
36371;SDS011;22398;51.346;12.372;2024-03-29T09:40:44;1.38;;;0.70;;
36371;SDS011;22398;51.346;12.372;2024-03-29T09:45:49;3.28;;;1.00;;
36371;SDS011;22398;51.346;12.372;2024-03-29T09:50:51;3.67;;;0.68;;
36371;SDS011;22398;51.346;12.372;2024-03-29T09:55:56;2.63;;;0.87;;
36371;SDS011;22398;51.346;12.372;2024-03-29T10:01:00;1.25;;;0.65;;
36371;SDS011;22398;51.346;12.372;2024-03-29T10:11:07;3.70;;;0.82;;
36371;SDS011;22398;51.346;12.372;2024-03-29T10:16:11;4.45;;;0.85;;
36371;SDS011;22398;51.346;12.372;2024-03-29T10:21:14;3.70;;;1.00;;
36371;SDS011;22398;51.346;12.372;2024-03-29T10:26:17;3.05;;;1.00;;
36371;SDS011;22398;51.346;12.372;2024-03-29T10:31:21;1.73;;;0.80;;
36371;SDS011;22398;51.346;12.372;2024-03-29T10:36:25;3.25;;;1.50;;
36371;SDS011;22398;51.346;12.372;2024-03-29T10:41:27;3.60;;;0.85;;
36371;SDS011;22398;51.346;12.372;2024-03-29T10:46:32;3.50;;;1.30;;
36371;SDS011;22398;51.346;12.372;2024-03-29T10:56:40;2.40;;;0.93;;
36371;SDS011;22398;51.346;12.372;2024-03-29T11:01:48;3.22;;;1.20;;
36371;SDS011;22398;51.346;12.372;2024-03-29T11:06:54;4.90;;;1.25;;
36371;SDS011;22398;51.346;12.372;2024-03-29T11:12:01;3.65;;;1.52;;
36371;SDS011;22398;51.346;12.372;2024-03-29T11:17:05;2.25;;;1.00;;
36371;SDS011;22398;51.346;12.372;2024-03-29T11:22:10;3.80;;;1.35;;
36371;SDS011;22398;51.346;12.372;2024-03-29T11:27:13;6.07;;;2.15;;
36371;SDS011;22398;51.346;12.372;2024-03-29T11:37:39;6.10;;;1.25;;
36371;SDS011;22398;51.346;12.372;2024-03-29T11:42:46;2.65;;;0.90;;
36371;SDS011;22398;51.346;12.372;2024-03-29T11:47:50;5.82;;;2.33;;
36371;SDS011;22398;51.346;12.372;2024-03-29T11:52:54;7.43;;;1.25;;
36371;SDS011;22398;51.346;12.372;2024-03-29T11:57:56;4.72;;;1.15;;
36371;SDS011;22398;51.346;12.372;2024-03-29T12:03:00;1.92;;;1.05;;
36371;SDS011;22398;51.346;12.372;2024-03-29T12:08:04;5.22;;;1.58;;
36371;SDS011;22398;51.346;12.372;2024-03-29T12:13:08;2.28;;;0.85;;
36371;SDS011;22398;51.346;12.372;2024-03-29T12:18:12;1.27;;;0.60;;
36371;SDS011;22398;51.346;12.372;2024-03-29T12:23:17;4.00;;;0.60;;
36371;SDS011;22398;51.346;12.372;2024-03-29T12:28:21;4.47;;;0.50;;
36371;SDS011;22398;51.346;12.372;2024-03-29T12:33:25;1.02;;;0.50;;
36371;SDS011;22398;51.346;12.372;2024-03-29T12:38:29;1.98;;;0.50;;
36371;SDS011;22398;51.346;12.372;2024-03-29T12:43:33;1.40;;;0.60;;
36371;SDS011;22398;51.346;12.372;2024-03-29T12:48:37;1.80;;;0.55;;
36371;SDS011;22398;51.346;12.372;2024-03-29T12:53:39;1.33;;;0.60;;
36371;SDS011;22398;51.346;12.372;2024-03-29T12:58:42;1.73;;;0.40;;
36371;SDS011;22398;51.346;12.372;2024-03-29T13:03:46;1.63;;;0.57;;
36371;SDS011;22398;51.346;12.372;2024-03-29T13:08:48;2.15;;;0.50;;
36371;SDS011;22398;51.346;12.372;2024-03-29T13:13:51;0.93;;;0.50;;
36371;SDS011;22398;51.346;12.372;2024-03-29T13:18:55;2.35;;;0.50;;
36371;SDS011;22398;51.346;12.372;2024-03-29T13:23:58;4.75;;;0.52;;
36371;SDS011;22398;51.346;12.372;2024-03-29T13:29:00;0.85;;;0.50;;
36371;SDS011;22398;51.346;12.372;2024-03-29T13:34:04;1.48;;;0.73;;
36371;SDS011;22398;51.346;12.372;2024-03-29T13:39:12;4.38;;;2.05;;
36371;SDS011;22398;51.346;12.372;2024-03-29T13:44:15;2.22;;;0.93;;
36371;SDS011;22398;51.346;12.372;2024-03-29T13:49:19;2.78;;;0.90;;
36371;SDS011;22398;51.346;12.372;2024-03-29T13:54:22;10.20;;;4.38;;
36371;SDS011;22398;51.346;12.372;2024-03-29T13:59:24;3.60;;;1.10;;
36371;SDS011;22398;51.346;12.372;2024-03-29T14:04:28;3.78;;;0.90;;
36371;SDS011;22398;51.346;12.372;2024-03-29T14:09:31;5.53;;;1.23;;
36371;SDS011;22398;51.346;12.372;2024-03-29T14:14:33;3.47;;;1.00;;
36371;SDS011;22398;51.346;12.372;2024-03-29T14:19:38;0.65;;;0.43;;
36371;SDS011;22398;51.346;12.372;2024-03-29T14:24:41;2.60;;;0.50;;
36371;SDS011;22398;51.346;12.372;2024-03-29T14:29:43;5.82;;;0.90;;
36371;SDS011;22398;51.346;12.372;2024-03-29T14:34:48;0.98;;;0.52;;
36371;SDS011;22398;51.346;12.372;2024-03-29T14:39:50;0.95;;;0.55;;
36371;SDS011;22398;51.346;12.372;2024-03-29T14:44:53;0.52;;;0.45;;
36371;SDS011;22398;51.346;12.372;2024-03-29T14:49:59;0.82;;;0.50;;
36371;SDS011;22398;51.346;12.372;2024-03-29T14:55:04;1.75;;;0.70;;
36371;SDS011;22398;51.346;12.372;2024-03-29T15:00:07;1.20;;;0.70;;
36371;SDS011;22398;51.346;12.372;2024-03-29T15:05:11;1.38;;;0.60;;
36371;SDS011;22398;51.346;12.372;2024-03-29T15:10:13;3.70;;;1.00;;
36371;SDS011;22398;51.346;12.372;2024-03-29T15:15:16;2.25;;;0.68;;
36371;SDS011;22398;51.346;12.372;2024-03-29T15:20:20;5.95;;;1.25;;
36371;SDS011;22398;51.346;12.372;2024-03-29T15:25:22;2.00;;;0.93;;
36371;SDS011;22398;51.346;12.372;2024-03-29T15:30:26;5.47;;;1.60;;
36371;SDS011;22398;51.346;12.372;2024-03-29T15:35:30;5.22;;;1.00;;
36371;SDS011;22398;51.346;12.372;2024-03-29T15:40:32;3.47;;;0.70;;
36371;SDS011;22398;51.346;12.372;2024-03-29T15:45:34;2.78;;;0.80;;
36371;SDS011;22398;51.346;12.372;2024-03-29T15:50:38;4.60;;;0.82;;
36371;SDS011;22398;51.346;12.372;2024-03-29T15:55:41;4.63;;;1.33;;
36371;SDS011;22398;51.346;12.372;2024-03-29T16:00:43;2.15;;;1.25;;
36371;SDS011;22398;51.346;12.372;2024-03-29T16:05:48;1.90;;;0.80;;
36371;SDS011;22398;51.346;12.372;2024-03-29T16:10:51;2.93;;;0.90;;
36371;SDS011;22398;51.346;12.372;2024-03-29T16:15:56;3.65;;;1.13;;
36371;SDS011;22398;51.346;12.372;2024-03-29T16:21:02;2.88;;;0.82;;
36371;SDS011;22398;51.346;12.372;2024-03-29T16:26:04;1.27;;;0.80;;
36371;SDS011;22398;51.346;12.372;2024-03-29T16:31:06;1.70;;;0.88;;
36371;SDS011;22398;51.346;12.372;2024-03-29T16:36:10;2.00;;;0.98;;
36371;SDS011;22398;51.346;12.372;2024-03-29T16:41:13;2.28;;;1.00;;
36371;SDS011;22398;51.346;12.372;2024-03-29T16:46:15;5.43;;;1.55;;
36371;SDS011;22398;51.346;12.372;2024-03-29T16:51:19;3.30;;;1.50;;
36371;SDS011;22398;51.346;12.372;2024-03-29T16:56:21;4.75;;;1.45;;
36371;SDS011;22398;51.346;12.372;2024-03-29T17:01:24;2.33;;;1.05;;
36371;SDS011;22398;51.346;12.372;2024-03-29T17:06:28;2.03;;;1.02;;
36371;SDS011;22398;51.346;12.372;2024-03-29T17:11:33;3.80;;;1.20;;
36371;SDS011;22398;51.346;12.372;2024-03-29T17:16:35;4.35;;;1.75;;
36371;SDS011;22398;51.346;12.372;2024-03-29T17:21:41;7.10;;;1.75;;
36371;SDS011;22398;51.346;12.372;2024-03-29T17:26:43;13.30;;;3.92;;
36371;SDS011;22398;51.346;12.372;2024-03-29T17:31:45;8.02;;;2.97;;
36371;SDS011;22398;51.346;12.372;2024-03-29T17:36:49;8.25;;;2.30;;
36371;SDS011;22398;51.346;12.372;2024-03-29T17:41:51;4.15;;;2.17;;
36371;SDS011;22398;51.346;12.372;2024-03-29T17:46:54;6.32;;;2.55;;
36371;SDS011;22398;51.346;12.372;2024-03-29T17:51:59;3.65;;;2.42;;
36371;SDS011;22398;51.346;12.372;2024-03-29T17:57:01;2.88;;;1.65;;
36371;SDS011;22398;51.346;12.372;2024-03-29T18:02:03;3.63;;;1.70;;
36371;SDS011;22398;51.346;12.372;2024-03-29T18:07:07;13.40;;;6.03;;
36371;SDS011;22398;51.346;12.372;2024-03-29T18:12:10;5.25;;;2.60;;
36371;SDS011;22398;51.346;12.372;2024-03-29T18:17:12;5.80;;;2.30;;
36371;SDS011;22398;51.346;12.372;2024-03-29T18:22:16;8.65;;;3.47;;
36371;SDS011;22398;51.346;12.372;2024-03-29T18:27:18;8.80;;;4.45;;
36371;SDS011;22398;51.346;12.372;2024-03-29T18:32:20;10.65;;;5.15;;
36371;SDS011;22398;51.346;12.372;2024-03-29T18:37:24;11.90;;;6.82;;
36371;SDS011;22398;51.346;12.372;2024-03-29T18:42:26;12.98;;;6.18;;
36371;SDS011;22398;51.346;12.372;2024-03-29T18:47:28;11.98;;;5.55;;
36371;SDS011;22398;51.346;12.372;2024-03-29T18:52:33;12.35;;;5.90;;
36371;SDS011;22398;51.346;12.372;2024-03-29T18:57:36;8.65;;;5.32;;
36371;SDS011;22398;51.346;12.372;2024-03-29T19:02:39;10.57;;;6.07;;
36371;SDS011;22398;51.346;12.372;2024-03-29T19:07:43;18.65;;;10.10;;
36371;SDS011;22398;51.346;12.372;2024-03-29T19:12:45;16.48;;;8.15;;
36371;SDS011;22398;51.346;12.372;2024-03-29T19:17:48;14.27;;;6.85;;
36371;SDS011;22398;51.346;12.372;2024-03-29T19:22:51;11.57;;;6.20;;
36371;SDS011;22398;51.346;12.372;2024-03-29T19:27:54;13.80;;;5.93;;
36371;SDS011;22398;51.346;12.372;2024-03-29T19:32:57;16.50;;;6.25;;
36371;SDS011;22398;51.346;12.372;2024-03-29T19:38:02;12.00;;;5.68;;
36371;SDS011;22398;51.346;12.372;2024-03-29T19:43:04;12.25;;;6.25;;
36371;SDS011;22398;51.346;12.372;2024-03-29T19:48:07;14.38;;;6.90;;
36371;SDS011;22398;51.346;12.372;2024-03-29T19:53:12;11.90;;;5.55;;
36371;SDS011;22398;51.346;12.372;2024-03-29T19:58:14;11.48;;;6.10;;
36371;SDS011;22398;51.346;12.372;2024-03-29T20:03:17;9.48;;;5.47;;
36371;SDS011;22398;51.346;12.372;2024-03-29T20:08:21;13.15;;;6.00;;
36371;SDS011;22398;51.346;12.372;2024-03-29T20:13:23;13.38;;;5.35;;
36371;SDS011;22398;51.346;12.372;2024-03-29T20:18:25;10.13;;;6.25;;
36371;SDS011;22398;51.346;12.372;2024-03-29T20:23:29;12.45;;;6.38;;
36371;SDS011;22398;51.346;12.372;2024-03-29T20:28:32;14.30;;;7.60;;
36371;SDS011;22398;51.346;12.372;2024-03-29T20:33:34;14.18;;;6.82;;
36371;SDS011;22398;51.346;12.372;2024-03-29T20:38:38;11.30;;;6.53;;
36371;SDS011;22398;51.346;12.372;2024-03-29T20:43:41;11.50;;;6.95;;
36371;SDS011;22398;51.346;12.372;2024-03-29T20:48:44;14.75;;;7.65;;
36371;SDS011;22398;51.346;12.372;2024-03-29T20:53:48;14.02;;;7.43;;
36371;SDS011;22398;51.346;12.372;2024-03-29T20:58:50;17.10;;;7.70;;
36371;SDS011;22398;51.346;12.372;2024-03-29T21:03:53;15.50;;;7.50;;
36371;SDS011;22398;51.346;12.372;2024-03-29T21:09:14;14.13;;;6.78;;
36371;SDS011;22398;51.346;12.372;2024-03-29T21:14:16;19.33;;;10.57;;
36371;SDS011;22398;51.346;12.372;2024-03-29T21:19:18;17.33;;;8.68;;
36371;SDS011;22398;51.346;12.372;2024-03-29T21:24:22;13.85;;;8.75;;
36371;SDS011;22398;51.346;12.372;2024-03-29T21:29:24;17.40;;;8.48;;
36371;SDS011;22398;51.346;12.372;2024-03-29T21:34:26;16.88;;;8.48;;
36371;SDS011;22398;51.346;12.372;2024-03-29T21:39:30;13.40;;;7.15;;
36371;SDS011;22398;51.346;12.372;2024-03-29T21:44:35;10.93;;;6.28;;
36371;SDS011;22398;51.346;12.372;2024-03-29T21:49:37;13.02;;;6.22;;
36371;SDS011;22398;51.346;12.372;2024-03-29T21:54:41;10.18;;;5.25;;
36371;SDS011;22398;51.346;12.372;2024-03-29T21:59:45;10.90;;;5.60;;
36371;SDS011;22398;51.346;12.372;2024-03-29T22:04:47;11.43;;;6.68;;
36371;SDS011;22398;51.346;12.372;2024-03-29T22:09:51;12.57;;;5.25;;
36371;SDS011;22398;51.346;12.372;2024-03-29T22:14:53;9.55;;;4.50;;
36371;SDS011;22398;51.346;12.372;2024-03-29T22:19:58;8.40;;;5.15;;
36371;SDS011;22398;51.346;12.372;2024-03-29T22:25:02;9.98;;;5.20;;
36371;SDS011;22398;51.346;12.372;2024-03-29T22:30:05;10.88;;;6.88;;
36371;SDS011;22398;51.346;12.372;2024-03-29T22:35:08;10.90;;;5.95;;
36371;SDS011;22398;51.346;12.372;2024-03-29T22:40:12;21.70;;;8.80;;
36371;SDS011;22398;51.346;12.372;2024-03-29T22:45:14;18.70;;;9.98;;
36371;SDS011;22398;51.346;12.372;2024-03-29T22:50:17;15.63;;;8.02;;
36371;SDS011;22398;51.346;12.372;2024-03-29T22:55:20;12.80;;;7.18;;
36371;SDS011;22398;51.346;12.372;2024-03-29T23:00:22;11.77;;;6.95;;
36371;SDS011;22398;51.346;12.372;2024-03-29T23:05:25;14.35;;;8.57;;
36371;SDS011;22398;51.346;12.372;2024-03-29T23:10:29;16.05;;;9.60;;
36371;SDS011;22398;51.346;12.372;2024-03-29T23:15:32;22.95;;;11.35;;
36371;SDS011;22398;51.346;12.372;2024-03-29T23:20:35;18.90;;;10.80;;
36371;SDS011;22398;51.346;12.372;2024-03-29T23:25:40;19.90;;;10.35;;
36371;SDS011;22398;51.346;12.372;2024-03-29T23:30:43;17.77;;;9.82;;
36371;SDS011;22398;51.346;12.372;2024-03-29T23:35:50;14.80;;;7.43;;
36371;SDS011;22398;51.346;12.372;2024-03-29T23:40:57;18.02;;;7.50;;
36371;SDS011;22398;51.346;12.372;2024-03-29T23:46:02;16.52;;;9.30;;
36371;SDS011;22398;51.346;12.372;2024-03-29T23:51:05;17.33;;;8.70;;
36371;SDS011;22398;51.346;12.372;2024-03-29T23:56:09;15.80;;;9.00;;
